Time,TemperatureF,DewpointF,PressureIn,WindDirection,WindDirectionDegrees,WindSpeedMPH,WindSpeedGustMPH,Humidity,HourlyPrecipIn,Conditions,Clouds,dailyrainin,SoftwareType,DateUTC
2013-01-02 00:01:00,71.7,69.9,30.08,SSW,203,1.0,3.0,94,0.00,CL,CL,0.00,WeatherDisplay:10.37,2013-01-02 05:01:00,
2013-01-02 00:16:00,71.7,69.9,30.08,SSW,203,1.0,3.0,94,0.00,CL,CL,0.00,WeatherDisplay:10.37,2013-01-02 05:16:00,
2013-01-02 01:00:00,74.3,70.2,30.08,SSW,203,3.0,6.0,87,0.00,CL,CL,0.00,WeatherDisplay:10.37,2013-01-02 06:00:00,
2013-01-02 01:01:00,74.3,70.2,30.08,SSW,203,3.0,6.0,87,0.00,CL,CL,0.00,WeatherDisplay:10.37,2013-01-02 06:01:00,
2013-01-02 02:00:00,76.5,70.6,30.06,SSW,203,5.0,9.0,82,0.00,CL,CL,0.00,WeatherDisplay:10.37,2013-01-02 07:00:00,
2013-01-02 02:01:00,76.5,70.6,30.06,SSW,203,5.0,9.0,82,0.00,CL,CL,0.00,WeatherDisplay:10.37,2013-01-02 07:01:00,
2013-01-02 03:00:00,76.9,69.8,30.03,SW,225,5.0,6.0,79,0.00,CL,CL,0.00,WeatherDisplay:10.37,2013-01-02 08:00:00,
2013-01-02 03:01:00,76.9,69.8,30.03,SW,225,5.0,6.0,79,0.00,CL,CL,0.00,WeatherDisplay:10.37,2013-01-02 08:01:00,
2013-01-02 04:00:00,77.0,69.3,30.02,WSW,248,3.0,7.0,77,0.00,CL,CL,0.00,WeatherDisplay:10.37,2013-01-02 09:00:00,
2013-01-02 04:01:00,77.0,69.3,30.02,WSW,248,3.0,7.0,77,0.00,CL,CL,0.00,WeatherDisplay:10.37,2013-01-02 09:01:00,
2013-01-02 05:00:00,75.9,69.6,30.01,SW,225,3.0,6.0,81,0.00,CL,CL,0.00,WeatherDisplay:10.37,2013-01-02 10:00:00,
2013-01-02 05:01:00,75.9,69.6,30.01,SW,225,3.0,6.0,81,0.00,CL,CL,0.00,WeatherDisplay:10.37,2013-01-02 10:01:00,
2013-01-02 06:00:00,74.1,70.3,30.03,SSW,203,2.0,3.0,88,0.00,CL,CL,0.00,WeatherDisplay:10.37,2013-01-02 11:00:00,
2013-01-02 06:01:00,74.1,70.3,30.03,SSW,203,2.0,3.0,88,0.00,CL,CL,0.00,WeatherDisplay:10.37,2013-01-02 11:01:00,
2013-01-02 07:00:00,69.6,68.1,30.03,SW,225,1.0,3.0,95,0.00,CL,CL,0.00,WeatherDisplay:10.37,2013-01-02 12:00:00,
2013-01-02 07:01:00,69.6,68.1,30.03,SW,225,1.0,3.0,95,0.00,CL,CL,0.00,WeatherDisplay:10.37,2013-01-02 12:01:00,
2013-01-02 08:00:00,68.2,67.3,30.04,WSW,248,0.0,0.0,97,0.00,CL,CL,0.00,WeatherDisplay:10.37,2013-01-02 13:00:00,
2013-01-02 08:01:00,68.2,67.3,30.04,WSW,248,0.0,0.0,97,0.00,CL,CL,0.00,WeatherDisplay:10.37,2013-01-02 13:01:00,
2013-01-02 09:00:00,67.0,66.7,30.05,WSW,248,0.0,1.0,99,0.00,CL,CL,0.00,WeatherDisplay:10.37,2013-01-02 14:00:00,
2013-01-02 09:01:00,67.0,66.7,30.05,WSW,248,0.0,1.0,99,0.00,CL,CL,0.00,WeatherDisplay:10.37,2013-01-02 14:01:00,
2013-01-02 10:00:00,65.9,65.9,30.06,West,270,0.0,2.0,100,0.00,CL,CL,0.00,WeatherDisplay:10.37,2013-01-02 15:00:00,
2013-01-02 10:01:00,65.9,65.9,30.06,West,270,0.0,2.0,100,0.00,CL,CL,0.00,WeatherDisplay:10.37,2013-01-02 15:01:00,
2013-01-02 11:00:00,65.3,65.3,30.08,West,270,0.0,0.0,100,0.00,CL,CL,0.00,WeatherDisplay:10.37,2013-01-02 16:00:00,
2013-01-02 11:01:00,65.3,65.3,30.08,West,270,0.0,0.0,100,0.00,CL,CL,0.00,WeatherDisplay:10.37,2013-01-02 16:01:00,
2013-01-02 21:02:00,65.5,65.5,30.07,West,263,0.0,0.0,100,0.00,,,0.00,WeatherDisplay:10.37,2013-01-03 02:02:00,
2013-01-02 21:07:00,65.4,65.4,30.08,West,263,0.0,0.0,100,0.00,,,0.00,WeatherDisplay:10.37,2013-01-03 02:07:00,
2013-01-02 21:12:00,65.3,65.3,30.08,West,263,0.0,0.0,100,0.00,,,0.00,WeatherDisplay:10.37,2013-01-03 02:12:00,